sensor_id;sensor_type;location;lat;lon;timestamp;pressure;altitude;pressure_sealevel;temperature;humidity
10167;BME280;62970;53.130;8.244;2023-04-07T00:04:56;101613.47;;;6.87;42.16
10167;BME280;62970;53.130;8.244;2023-04-07T00:07:27;101611.72;;;6.84;42.67
10167;BME280;62970;53.130;8.244;2023-04-07T00:09:57;101616.88;;;6.81;43.15
10167;BME280;62970;53.130;8.244;2023-04-07T00:12:26;101612.56;;;6.79;43.30
10167;BME280;62970;53.130;8.244;2023-04-07T00:15:00;101616.84;;;6.74;43.14
10167;BME280;62970;53.130;8.244;2023-04-07T00:17:30;101606.47;;;6.69;43.54
10167;BME280;62970;53.130;8.244;2023-04-07T00:20:01;101606.44;;;6.63;43.96
10167;BME280;62970;53.130;8.244;2023-04-07T00:22:31;101610.72;;;6.59;44.00
10167;BME280;62970;53.130;8.244;2023-04-07T00:25:00;101608.09;;;6.55;44.31
10167;BME280;62970;53.130;8.244;2023-04-07T00:27:29;101618.44;;;6.52;44.57
10167;BME280;62970;53.130;8.244;2023-04-07T00:29:58;101614.09;;;6.46;44.67
10167;BME280;62970;53.130;8.244;2023-04-07T00:32:28;101615.81;;;6.44;44.82
10167;BME280;62970;53.130;8.244;2023-04-07T00:34:57;101612.31;;;6.39;44.55
10167;BME280;62970;53.130;8.244;2023-04-07T00:37:29;101611.44;;;6.35;45.04
10167;BME280;62970;53.130;8.244;2023-04-07T00:39:59;101613.13;;;6.30;44.91
10167;BME280;62970;53.130;8.244;2023-04-07T00:42:35;101607.91;;;6.27;45.53
10167;BME280;62970;53.130;8.244;2023-04-07T00:45:06;101611.34;;;6.23;45.30
10167;BME280;62970;53.130;8.244;2023-04-07T00:47:35;101613.06;;;6.21;45.73
10167;BME280;62970;53.130;8.244;2023-04-07T00:50:07;101603.53;;;6.19;46.12
10167;BME280;62970;53.130;8.244;2023-04-07T00:52:41;101608.69;;;6.16;45.54
10167;BME280;62970;53.130;8.244;2023-04-07T00:55:11;101611.28;;;6.14;46.09
10167;BME280;62970;53.130;8.244;2023-04-07T00:57:41;101607.81;;;6.12;46.12
10167;BME280;62970;53.130;8.244;2023-04-07T01:00:13;101604.34;;;6.10;46.47
10167;BME280;62970;53.130;8.244;2023-04-07T01:02:46;101604.34;;;6.10;46.15
10167;BME280;62970;53.130;8.244;2023-04-07T01:05:22;101607.78;;;6.09;46.38
10167;BME280;62970;53.130;8.244;2023-04-07T01:08:07;101608.66;;;6.10;46.46
10167;BME280;62970;53.130;8.244;2023-04-07T01:10:48;101602.63;;;6.11;46.17
10167;BME280;62970;53.130;8.244;2023-04-07T01:13:24;101606.94;;;6.12;46.48
10167;BME280;62970;53.130;8.244;2023-04-07T01:15:59;101605.22;;;6.12;46.30
10167;BME280;62970;53.130;8.244;2023-04-07T01:18:32;101606.09;;;6.13;46.29
10167;BME280;62970;53.130;8.244;2023-04-07T01:21:05;101607.81;;;6.15;46.27
10167;BME280;62970;53.130;8.244;2023-04-07T01:23:54;101606.09;;;6.16;45.96
10167;BME280;62970;53.130;8.244;2023-04-07T01:26:31;101605.25;;;6.17;45.92
10167;BME280;62970;53.130;8.244;2023-04-07T01:29:28;101607.00;;;6.18;45.72
10167;BME280;62970;53.130;8.244;2023-04-07T01:32:01;101606.13;;;6.19;45.98
10167;BME280;62970;53.130;8.244;2023-04-07T01:34:35;101603.53;;;6.19;45.93
10167;BME280;62970;53.130;8.244;2023-04-07T01:37:06;101604.41;;;6.19;45.62
10167;BME280;62970;53.130;8.244;2023-04-07T01:39:36;101608.72;;;6.19;45.89
10167;BME280;62970;53.130;8.244;2023-04-07T01:42:06;101613.03;;;6.18;46.01
10167;BME280;62970;53.130;8.244;2023-04-07T01:44:39;101610.44;;;6.17;45.83
10167;BME280;62970;53.130;8.244;2023-04-07T01:47:09;101613.88;;;6.14;45.61
10167;BME280;62970;53.130;8.244;2023-04-07T01:49:40;101603.50;;;6.13;45.41
10167;BME280;62970;53.130;8.244;2023-04-07T01:52:10;101618.16;;;6.11;45.46
10167;BME280;62970;53.130;8.244;2023-04-07T01:54:39;101615.53;;;6.08;44.99
10167;BME280;62970;53.130;8.244;2023-04-07T01:57:08;101615.50;;;6.05;44.96
10167;BME280;62970;53.130;8.244;2023-04-07T01:59:41;101613.75;;;6.00;44.88
10167;BME280;62970;53.130;8.244;2023-04-07T02:02:11;101615.44;;;5.95;44.94
10167;BME280;62970;53.130;8.244;2023-04-07T02:04:48;101614.53;;;5.92;45.23
10167;BME280;62970;53.130;8.244;2023-04-07T02:07:31;101606.72;;;5.87;44.66
10167;BME280;62970;53.130;8.244;2023-04-07T02:10:07;101612.72;;;5.83;44.96
10167;BME280;62970;53.130;8.244;2023-04-07T02:12:41;101610.13;;;5.82;44.80
10167;BME280;62970;53.130;8.244;2023-04-07T02:15:13;101604.94;;;5.80;45.00
10167;BME280;62970;53.130;8.244;2023-04-07T02:17:48;101612.66;;;5.76;44.95
10167;BME280;62970;53.130;8.244;2023-04-07T02:20:20;101612.63;;;5.73;44.75
10167;BME280;62970;53.130;8.244;2023-04-07T02:22:49;101609.16;;;5.69;44.83
10167;BME280;62970;53.130;8.244;2023-04-07T02:25:23;101609.97;;;5.63;45.13
10167;BME280;62970;53.130;8.244;2023-04-07T02:27:55;101612.53;;;5.60;44.88
10167;BME280;62970;53.130;8.244;2023-04-07T02:30:28;101609.88;;;5.54;45.25
10167;BME280;62970;53.130;8.244;2023-04-07T02:32:57;101607.25;;;5.51;45.29
10167;BME280;62970;53.130;8.244;2023-04-07T02:35:27;101614.13;;;5.49;45.33
10167;BME280;62970;53.130;8.244;2023-04-07T02:37:56;101608.06;;;5.46;45.61
10167;BME280;62970;53.130;8.244;2023-04-07T02:40:25;101609.75;;;5.44;45.16
10167;BME280;62970;53.130;8.244;2023-04-07T02:42:55;101619.22;;;5.42;45.51
10167;BME280;62970;53.130;8.244;2023-04-07T02:45:27;101614.00;;;5.38;45.47
10167;BME280;62970;53.130;8.244;2023-04-07T02:47:56;101615.69;;;5.35;45.32
10167;BME280;62970;53.130;8.244;2023-04-07T02:50:25;101625.16;;;5.33;45.08
10167;BME280;62970;53.130;8.244;2023-04-07T02:52:57;101618.19;;;5.30;45.05
10167;BME280;62970;53.130;8.244;2023-04-07T02:55:26;101610.38;;;5.26;45.01
10167;BME280;62970;53.130;8.244;2023-04-07T02:57:57;101619.81;;;5.22;45.09
10167;BME280;62970;53.130;8.244;2023-04-07T03:00:30;101624.09;;;5.19;45.14
10167;BME280;62970;53.130;8.244;2023-04-07T03:02:59;101621.50;;;5.17;45.55
10167;BME280;62970;53.130;8.244;2023-04-07T03:05:31;101623.19;;;5.15;45.11
10167;BME280;62970;53.130;8.244;2023-04-07T03:08:03;101619.72;;;5.13;45.41
10167;BME280;62970;53.130;8.244;2023-04-07T03:10:32;101613.69;;;5.13;45.19
10167;BME280;62970;53.130;8.244;2023-04-07T03:13:05;101623.19;;;5.15;45.42
10167;BME280;62970;53.130;8.244;2023-04-07T03:15:39;101620.59;;;5.15;45.06
10167;BME280;62970;53.130;8.244;2023-04-07T03:18:10;101624.94;;;5.16;45.12
10167;BME280;62970;53.130;8.244;2023-04-07T03:20:40;101625.81;;;5.18;45.37
10167;BME280;62970;53.130;8.244;2023-04-07T03:23:12;101616.34;;;5.19;45.45
10167;BME280;62970;53.130;8.244;2023-04-07T03:25:44;101615.47;;;5.18;45.55
10167;BME280;62970;53.130;8.244;2023-04-07T03:28:14;101611.19;;;5.20;45.48
10167;BME280;62970;53.130;8.244;2023-04-07T03:30:45;101608.59;;;5.20;45.45
10167;BME280;62970;53.130;8.244;2023-04-07T03:33:15;101605.16;;;5.21;45.50
10167;BME280;62970;53.130;8.244;2023-04-07T03:35:44;101607.75;;;5.21;45.20
10167;BME280;62970;53.130;8.244;2023-04-07T03:38:14;101604.31;;;5.22;45.27
10167;BME280;62970;53.130;8.244;2023-04-07T03:40:44;101615.53;;;5.23;45.21
10167;BME280;62970;53.130;8.244;2023-04-07T03:43:13;101611.22;;;5.23;44.99
10167;BME280;62970;53.130;8.244;2023-04-07T03:45:46;101612.97;;;5.24;45.39
10167;BME280;62970;53.130;8.244;2023-04-07T03:48:15;101611.22;;;5.23;45.17
10167;BME280;62970;53.130;8.244;2023-04-07T03:50:45;101624.13;;;5.22;44.92
10167;BME280;62970;53.130;8.244;2023-04-07T03:53:14;101615.50;;;5.20;45.17
10167;BME280;62970;53.130;8.244;2023-04-07T03:55:44;101618.91;;;5.17;45.25
10167;BME280;62970;53.130;8.244;2023-04-07T03:58:14;101616.28;;;5.14;44.88
10167;BME280;62970;53.130;8.244;2023-04-07T04:00:46;101618.81;;;5.10;45.11
10167;BME280;62970;53.130;8.244;2023-04-07T04:03:15;101623.09;;;5.06;44.89
10167;BME280;62970;53.130;8.244;2023-04-07T04:05:46;101623.88;;;5.02;44.81
10167;BME280;62970;53.130;8.244;2023-04-07T04:08:15;101626.41;;;4.97;45.11
10167;BME280;62970;53.130;8.244;2023-04-07T04:10:44;101618.59;;;4.93;45.16
10167;BME280;62970;53.130;8.244;2023-04-07T04:13:13;101622.00;;;4.89;45.08
10167;BME280;62970;53.130;8.244;2023-04-07T04:15:45;101624.53;;;4.84;45.18
10167;BME280;62970;53.130;8.244;2023-04-07T04:18:15;101627.94;;;4.82;44.82
10167;BME280;62970;53.130;8.244;2023-04-07T04:20:44;101633.03;;;4.79;45.08
10167;BME280;62970;53.130;8.244;2023-04-07T04:23:14;101634.72;;;4.77;45.39
10167;BME280;62970;53.130;8.244;2023-04-07T04:25:44;101637.25;;;4.73;45.29
10167;BME280;62970;53.130;8.244;2023-04-07T04:28:13;101631.19;;;4.71;45.24
10167;BME280;62970;53.130;8.244;2023-04-07T04:30:45;101639.75;;;4.67;45.01
10167;BME280;62970;53.130;8.244;2023-04-07T04:33:14;101640.59;;;4.65;45.21
10167;BME280;62970;53.130;8.244;2023-04-07T04:35:45;101642.22;;;4.60;45.25
10167;BME280;62970;53.130;8.244;2023-04-07T04:38:15;101649.91;;;4.55;45.14
10167;BME280;62970;53.130;8.244;2023-04-07T04:40:44;101649.88;;;4.52;45.35
10167;BME280;62970;53.130;8.244;2023-04-07T04:43:14;101643.78;;;4.49;45.50
10167;BME280;62970;53.130;8.244;2023-04-07T04:45:47;101650.66;;;4.47;45.19
10167;BME280;62970;53.130;8.244;2023-04-07T04:48:16;101664.41;;;4.46;45.30
10167;BME280;62970;53.130;8.244;2023-04-07T04:50:46;101656.59;;;4.42;45.75
10167;BME280;62970;53.130;8.244;2023-04-07T04:53:15;101662.63;;;4.41;45.32
10167;BME280;62970;53.130;8.244;2023-04-07T04:55:44;101668.63;;;4.40;45.60
10167;BME280;62970;53.130;8.244;2023-04-07T04:58:17;101669.53;;;4.42;45.67
10167;BME280;62970;53.130;8.244;2023-04-07T05:00:53;101668.66;;;4.42;45.39
10167;BME280;62970;53.130;8.244;2023-04-07T05:03:26;101672.09;;;4.42;45.61
10167;BME280;62970;53.130;8.244;2023-04-07T05:05:55;101677.28;;;4.44;45.56
10167;BME280;62970;53.130;8.244;2023-04-07T05:08:24;101678.19;;;4.46;45.83
10167;BME280;62970;53.130;8.244;2023-04-07T05:10:54;101686.81;;;4.47;45.58
10167;BME280;62970;53.130;8.244;2023-04-07T05:13:23;101684.19;;;4.45;45.39
10167;BME280;62970;53.130;8.244;2023-04-07T05:15:58;101692.78;;;4.44;45.36
10167;BME280;62970;53.130;8.244;2023-04-07T05:18:27;101689.31;;;4.42;45.52
10167;BME280;62970;53.130;8.244;2023-04-07T05:20:57;101688.41;;;4.40;45.56
10167;BME280;62970;53.130;8.244;2023-04-07T05:23:26;101693.53;;;4.37;45.68
10167;BME280;62970;53.130;8.244;2023-04-07T05:25:56;101699.53;;;4.36;45.39
10167;BME280;62970;53.130;8.244;2023-04-07T05:28:25;101699.50;;;4.34;45.35
10167;BME280;62970;53.130;8.244;2023-04-07T05:30:57;101708.97;;;4.34;45.69
10167;BME280;62970;53.130;8.244;2023-04-07T05:33:27;101706.50;;;4.40;45.28
10167;BME280;62970;53.130;8.244;2023-04-07T05:35:56;101703.25;;;4.53;45.22
10167;BME280;62970;53.130;8.244;2023-04-07T05:38:25;101708.72;;;4.71;45.24
10167;BME280;62970;53.130;8.244;2023-04-07T05:40:54;101709.06;;;4.93;45.04
10167;BME280;62970;53.130;8.244;2023-04-07T05:43:24;101702.56;;;5.21;44.88
10167;BME280;62970;53.130;8.244;2023-04-07T05:45:58;101701.34;;;5.59;44.60
10167;BME280;62970;53.130;8.244;2023-04-07T05:48:27;101700.06;;;6.01;44.13
10167;BME280;62970;53.130;8.244;2023-04-07T05:50:57;101709.09;;;6.46;43.75
10167;BME280;62970;53.130;8.244;2023-04-07T05:53:26;101704.22;;;6.87;43.02
10167;BME280;62970;53.130;8.244;2023-04-07T05:55:56;101700.97;;;7.23;42.78
10167;BME280;62970;53.130;8.244;2023-04-07T05:58:25;101715.00;;;7.61;42.48
10167;BME280;62970;53.130;8.244;2023-04-07T06:00:54;101722.03;;;8.01;41.93
10167;BME280;62970;53.130;8.244;2023-04-07T06:03:26;101723.81;;;8.37;41.44
10167;BME280;62970;53.130;8.244;2023-04-07T06:05:58;101718.63;;;8.67;41.02
10167;BME280;62970;53.130;8.244;2023-04-07T06:08:28;101726.41;;;9.01;41.10
10167;BME280;62970;53.130;8.244;2023-04-07T06:10:57;101708.13;;;9.25;40.54
10167;BME280;62970;53.130;8.244;2023-04-07T06:13:26;101718.44;;;9.52;40.09
10167;BME280;62970;53.130;8.244;2023-04-07T06:15:56;101717.47;;;9.72;39.64
10167;BME280;62970;53.130;8.244;2023-04-07T06:18:27;101723.44;;;9.92;40.04
10167;BME280;62970;53.130;8.244;2023-04-07T06:20:57;101731.13;;;10.15;39.57
10167;BME280;62970;53.130;8.244;2023-04-07T06:23:28;101726.63;;;10.40;39.79
10167;BME280;62970;53.130;8.244;2023-04-07T06:25:57;101735.09;;;10.68;39.27
10167;BME280;62970;53.130;8.244;2023-04-07T06:28:27;101736.56;;;10.95;38.83
10167;BME280;62970;53.130;8.244;2023-04-07T06:30:57;101732.00;;;11.15;39.02
10167;BME280;62970;53.130;8.244;2023-04-07T06:33:28;101734.38;;;11.38;38.51
10167;BME280;62970;53.130;8.244;2023-04-07T06:35:58;101738.44;;;11.63;38.21
10167;BME280;62970;53.130;8.244;2023-04-07T06:38:27;101738.19;;;11.83;37.92
10167;BME280;62970;53.130;8.244;2023-04-07T06:40:57;101748.38;;;12.01;37.83
10167;BME280;62970;53.130;8.244;2023-04-07T06:43:26;101754.16;;;12.22;37.42
10167;BME280;62970;53.130;8.244;2023-04-07T06:45:55;101756.50;;;12.40;37.64
10167;BME280;62970;53.130;8.244;2023-04-07T06:48:28;101758.91;;;12.54;36.89
10167;BME280;62970;53.130;8.244;2023-04-07T06:50:57;101750.03;;;12.67;36.93
10167;BME280;62970;53.130;8.244;2023-04-07T06:53:26;101758.53;;;12.80;36.92
10167;BME280;62970;53.130;8.244;2023-04-07T06:56:03;101749.72;;;12.85;36.57
10167;BME280;62970;53.130;8.244;2023-04-07T06:58:33;101752.09;;;12.97;37.00
10167;BME280;62970;53.130;8.244;2023-04-07T07:01:03;101759.72;;;13.10;36.45
10167;BME280;62970;53.130;8.244;2023-04-07T07:03:35;101771.44;;;12.90;35.81
10167;BME280;62970;53.130;8.244;2023-04-07T07:06:04;101764.31;;;12.43;36.48
10167;BME280;62970;53.130;8.244;2023-04-07T07:08:34;101767.75;;;11.85;36.24
10167;BME280;62970;53.130;8.244;2023-04-07T07:11:03;101771.91;;;11.26;36.67
10167;BME280;62970;53.130;8.244;2023-04-07T07:13:33;101777.66;;;10.71;37.13
10167;BME280;62970;53.130;8.244;2023-04-07T07:16:05;101792.84;;;10.17;37.34
10167;BME280;62970;53.130;8.244;2023-04-07T07:18:37;101779.97;;;9.69;38.03
10167;BME280;62970;53.130;8.244;2023-04-07T07:21:07;101788.78;;;9.31;38.64
10167;BME280;62970;53.130;8.244;2023-04-07T07:23:36;101802.72;;;9.00;38.79
10167;BME280;62970;53.130;8.244;2023-04-07T07:26:05;101808.78;;;8.77;39.28
10167;BME280;62970;53.130;8.244;2023-04-07T07:28:34;101807.00;;;8.58;39.40
10167;BME280;62970;53.130;8.244;2023-04-07T07:31:08;101812.19;;;8.40;39.79
10167;BME280;62970;53.130;8.244;2023-04-07T07:33:41;101809.56;;;8.26;39.86
10167;BME280;62970;53.130;8.244;2023-04-07T07:36:11;101813.00;;;8.19;39.88
10167;BME280;62970;53.130;8.244;2023-04-07T07:38:40;101819.94;;;8.17;40.31
10167;BME280;62970;53.130;8.244;2023-04-07T07:41:09;101819.06;;;8.21;40.30
10167;BME280;62970;53.130;8.244;2023-04-07T07:43:38;101823.47;;;8.49;40.72
10167;BME280;62970;53.130;8.244;2023-04-07T07:46:08;101826.13;;;8.97;40.81
10167;BME280;62970;53.130;8.244;2023-04-07T07:48:40;101822.56;;;9.57;40.33
10167;BME280;62970;53.130;8.244;2023-04-07T07:51:09;101820.63;;;10.17;40.01
10167;BME280;62970;53.130;8.244;2023-04-07T07:53:39;101819.44;;;10.68;39.29
10167;BME280;62970;53.130;8.244;2023-04-07T07:56:08;101828.66;;;11.07;38.61
10167;BME280;62970;53.130;8.244;2023-04-07T07:58:37;101823.19;;;11.35;37.94
10167;BME280;62970;53.130;8.244;2023-04-07T08:01:07;101818.72;;;11.47;37.12
10167;BME280;62970;53.130;8.244;2023-04-07T08:03:40;101820.38;;;11.55;37.52
10167;BME280;62970;53.130;8.244;2023-04-07T08:06:09;101825.63;;;11.53;37.07
10167;BME280;62970;53.130;8.244;2023-04-07T08:08:38;101822.25;;;11.39;37.22
10167;BME280;62970;53.130;8.244;2023-04-07T08:11:07;101825.09;;;11.18;37.42
10167;BME280;62970;53.130;8.244;2023-04-07T08:13:36;101828.78;;;10.95;37.52
10167;BME280;62970;53.130;8.244;2023-04-07T08:16:10;101838.56;;;10.67;37.75
10167;BME280;62970;53.130;8.244;2023-04-07T08:18:43;101828.31;;;10.38;38.14
10167;BME280;62970;53.130;8.244;2023-04-07T08:21:12;101832.78;;;10.12;38.16
10167;BME280;62970;53.130;8.244;2023-04-07T08:23:41;101818.94;;;9.92;38.80
10167;BME280;62970;53.130;8.244;2023-04-07T08:26:11;101819.00;;;9.78;39.08
10167;BME280;62970;53.130;8.244;2023-04-07T08:28:40;101832.06;;;9.69;38.93
10167;BME280;62970;53.130;8.244;2023-04-07T08:31:09;101840.78;;;9.62;39.54
10167;BME280;62970;53.130;8.244;2023-04-07T08:33:38;101834.72;;;9.53;39.17
10167;BME280;62970;53.130;8.244;2023-04-07T08:36:10;101845.16;;;9.46;39.69
10167;BME280;62970;53.130;8.244;2023-04-07T08:38:40;101829.53;;;9.43;39.63
10167;BME280;62970;53.130;8.244;2023-04-07T08:41:12;101827.78;;;9.45;40.15
10167;BME280;62970;53.130;8.244;2023-04-07T08:43:46;101829.53;;;9.47;39.93
10167;BME280;62970;53.130;8.244;2023-04-07T08:46:19;101830.38;;;9.49;39.73
10167;BME280;62970;53.130;8.244;2023-04-07T08:48:51;101835.59;;;9.49;39.87
10167;BME280;62970;53.130;8.244;2023-04-07T08:51:27;101835.59;;;9.51;39.90
10167;BME280;62970;53.130;8.244;2023-04-07T08:54:05;101844.28;;;9.50;39.97
10167;BME280;62970;53.130;8.244;2023-04-07T08:56:37;101844.28;;;9.51;39.47
10167;BME280;62970;53.130;8.244;2023-04-07T08:59:09;101845.13;;;9.50;39.38
10167;BME280;62970;53.130;8.244;2023-04-07T09:01:39;101855.56;;;9.50;39.04
10167;BME280;62970;53.130;8.244;2023-04-07T09:04:09;101846.88;;;9.50;38.80
10167;BME280;62970;53.130;8.244;2023-04-07T09:06:42;101845.16;;;9.49;39.20
10167;BME280;62970;53.130;8.244;2023-04-07T09:09:11;101858.16;;;9.49;39.05
10167;BME280;62970;53.130;8.244;2023-04-07T09:11:41;101846.00;;;9.48;38.82
10167;BME280;62970;53.130;8.244;2023-04-07T09:14:10;101851.22;;;9.48;39.39
10167;BME280;62970;53.130;8.244;2023-04-07T09:16:40;101853.81;;;9.48;38.91
10167;BME280;62970;53.130;8.244;2023-04-07T09:19:09;101857.28;;;9.47;38.07
10167;BME280;62970;53.130;8.244;2023-04-07T09:21:52;101854.69;;;9.47;38.57
10167;BME280;62970;53.130;8.244;2023-04-07T09:24:24;101847.75;;;9.49;37.47
10167;BME280;62970;53.130;8.244;2023-04-07T09:27:09;101858.16;;;9.47;37.01
10167;BME280;62970;53.130;8.244;2023-04-07T09:29:40;101859.03;;;9.48;36.90
10167;BME280;62970;53.130;8.244;2023-04-07T09:32:12;101852.09;;;9.51;37.58
10167;BME280;62970;53.130;8.244;2023-04-07T09:34:58;101856.41;;;9.55;37.50
10167;BME280;62970;53.130;8.244;2023-04-07T09:37:30;101859.88;;;9.61;37.42
10167;BME280;62970;53.130;8.244;2023-04-07T09:40:00;101852.03;;;9.67;37.41
10167;BME280;62970;53.130;8.244;2023-04-07T09:42:29;101852.88;;;9.73;36.64
10167;BME280;62970;53.130;8.244;2023-04-07T09:45:04;101850.25;;;9.81;36.51
10167;BME280;62970;53.130;8.244;2023-04-07T09:47:34;101849.38;;;9.86;36.63
10167;BME280;62970;53.130;8.244;2023-04-07T09:50:06;101855.41;;;9.95;36.57
10167;BME280;62970;53.130;8.244;2023-04-07T09:52:52;101864.97;;;10.00;34.47
10167;BME280;62970;53.130;8.244;2023-04-07T09:55:22;101855.41;;;10.04;35.56
10167;BME280;62970;53.130;8.244;2023-04-07T09:57:52;101855.41;;;10.05;35.68
10167;BME280;62970;53.130;8.244;2023-04-07T10:00:23;101839.75;;;10.07;35.69
10167;BME280;62970;53.130;8.244;2023-04-07T10:02:53;101846.69;;;10.12;35.60
10167;BME280;62970;53.130;8.244;2023-04-07T10:05:24;101847.53;;;10.16;35.94
10167;BME280;62970;53.130;8.244;2023-04-07T10:07:56;101851.03;;;10.21;34.97
10167;BME280;62970;53.130;8.244;2023-04-07T10:10:26;101864.00;;;10.29;35.38
10167;BME280;62970;53.130;8.244;2023-04-07T10:12:57;101842.25;;;10.34;35.60
10167;BME280;62970;53.130;8.244;2023-04-07T10:15:27;101856.13;;;10.39;34.96
10167;BME280;62970;53.130;8.244;2023-04-07T10:17:59;101857.84;;;10.42;34.87
10167;BME280;62970;53.130;8.244;2023-04-07T10:20:31;101860.47;;;10.42;35.23
10167;BME280;62970;53.130;8.244;2023-04-07T10:23:11;101857.00;;;10.41;35.19
10167;BME280;62970;53.130;8.244;2023-04-07T10:25:42;101865.66;;;10.45;35.11
10167;BME280;62970;53.130;8.244;2023-04-07T10:28:12;101870.84;;;10.48;35.09
10167;BME280;62970;53.130;8.244;2023-04-07T10:30:43;101877.78;;;10.52;34.65
10167;BME280;62970;53.130;8.244;2023-04-07T10:33:13;101870.81;;;10.52;34.57
10167;BME280;62970;53.130;8.244;2023-04-07T10:36:05;101868.22;;;10.51;34.62
10167;BME280;62970;53.130;8.244;2023-04-07T10:38:38;101874.31;;;10.53;34.50
10167;BME280;62970;53.130;8.244;2023-04-07T10:41:32;101869.94;;;10.58;34.81
10167;BME280;62970;53.130;8.244;2023-04-07T10:44:02;101862.06;;;10.64;35.07
10167;BME280;62970;53.130;8.244;2023-04-07T10:47:02;101884.63;;;10.70;34.19
10167;BME280;62970;53.130;8.244;2023-04-07T10:49:33;101883.72;;;10.74;34.62
10167;BME280;62970;53.130;8.244;2023-04-07T10:52:23;101886.34;;;10.74;33.87
10167;BME280;62970;53.130;8.244;2023-04-07T10:55:32;101884.59;;;10.76;33.92
10167;BME280;62970;53.130;8.244;2023-04-07T10:58:21;101881.13;;;10.75;33.25
10167;BME280;62970;53.130;8.244;2023-04-07T11:01:17;101877.63;;;10.75;33.15
10167;BME280;62970;53.130;8.244;2023-04-07T11:03:59;101883.69;;;10.78;33.70
10167;BME280;62970;53.130;8.244;2023-04-07T11:06:29;101877.56;;;10.84;33.75
10167;BME280;62970;53.130;8.244;2023-04-07T11:08:59;101889.72;;;10.90;33.62
10167;BME280;62970;53.130;8.244;2023-04-07T11:11:41;101880.97;;;10.94;34.09
10167;BME280;62970;53.130;8.244;2023-04-07T11:14:24;101879.16;;;11.03;33.76
10167;BME280;62970;53.130;8.244;2023-04-07T11:16:55;101885.19;;;11.10;33.54
10167;BME280;62970;53.130;8.244;2023-04-07T11:19:24;101889.47;;;11.19;33.76
10167;BME280;62970;53.130;8.244;2023-04-07T11:22:14;101889.41;;;11.25;33.27
10167;BME280;62970;53.130;8.244;2023-04-07T11:24:45;101886.75;;;11.31;33.52
10167;BME280;62970;53.130;8.244;2023-04-07T11:27:17;101884.09;;;11.37;33.56
10167;BME280;62970;53.130;8.244;2023-04-07T11:29:48;101896.25;;;11.42;33.25
10167;BME280;62970;53.130;8.244;2023-04-07T11:32:22;101884.03;;;11.46;33.63
10167;BME280;62970;53.130;8.244;2023-04-07T11:34:55;101892.66;;;11.54;33.10
10167;BME280;62970;53.130;8.244;2023-04-07T11:37:26;101891.75;;;11.58;32.98
10167;BME280;62970;53.130;8.244;2023-04-07T11:39:57;101893.50;;;11.58;33.21
10167;BME280;62970;53.130;8.244;2023-04-07T11:42:37;101889.09;;;11.61;33.48
10167;BME280;62970;53.130;8.244;2023-04-07T11:45:16;101890.81;;;11.64;32.46
10167;BME280;62970;53.130;8.244;2023-04-07T11:47:46;101902.09;;;11.67;33.27
10167;BME280;62970;53.130;8.244;2023-04-07T11:50:16;101888.09;;;11.73;32.56
10167;BME280;62970;53.130;8.244;2023-04-07T11:52:47;101894.19;;;11.75;32.85
10167;BME280;62970;53.130;8.244;2023-04-07T11:55:17;101895.91;;;11.77;33.08
10167;BME280;62970;53.130;8.244;2023-04-07T11:57:54;101906.31;;;11.79;32.09
10167;BME280;62970;53.130;8.244;2023-04-07T12:00:26;101896.72;;;11.81;32.55
10167;BME280;62970;53.130;8.244;2023-04-07T12:02:55;101905.41;;;11.83;32.45
10167;BME280;62970;53.130;8.244;2023-04-07T12:05:24;101906.25;;;11.85;32.44
10167;BME280;62970;53.130;8.244;2023-04-07T12:07:54;101900.13;;;11.88;32.17
10167;BME280;62970;53.130;8.244;2023-04-07T12:10:24;101900.13;;;11.89;32.34
10167;BME280;62970;53.130;8.244;2023-04-07T12:12:56;101898.38;;;11.90;32.45
10167;BME280;62970;53.130;8.244;2023-04-07T12:15:27;101900.94;;;11.93;32.19
10167;BME280;62970;53.130;8.244;2023-04-07T12:17:56;101902.66;;;11.95;32.34
10167;BME280;62970;53.130;8.244;2023-04-07T12:20:26;101896.53;;;11.98;32.69
10167;BME280;62970;53.130;8.244;2023-04-07T12:22:56;101899.97;;;12.03;32.54
10167;BME280;62970;53.130;8.244;2023-04-07T12:25:26;101906.91;;;12.05;32.37
10167;BME280;62970;53.130;8.244;2023-04-07T12:27:58;101905.16;;;12.04;31.80
10167;BME280;62970;53.130;8.244;2023-04-07T12:30:29;101905.19;;;12.01;31.98
10167;BME280;62970;53.130;8.244;2023-04-07T12:32:58;101910.44;;;12.00;31.86
10167;BME280;62970;53.130;8.244;2023-04-07T12:35:28;101897.38;;;12.01;32.12
10167;BME280;62970;53.130;8.244;2023-04-07T12:37:57;101908.69;;;12.02;31.92
10167;BME280;62970;53.130;8.244;2023-04-07T12:40:27;101912.16;;;12.02;32.07
10167;BME280;62970;53.130;8.244;2023-04-07T12:43:00;101906.06;;;12.03;31.90
10167;BME280;62970;53.130;8.244;2023-04-07T12:45:29;101915.63;;;12.04;31.85
10167;BME280;62970;53.130;8.244;2023-04-07T12:47:58;101912.09;;;12.08;31.67
10167;BME280;62970;53.130;8.244;2023-04-07T12:50:28;101912.06;;;12.10;31.59
10167;BME280;62970;53.130;8.244;2023-04-07T12:52:58;101915.50;;;12.13;32.13
10167;BME280;62970;53.130;8.244;2023-04-07T12:55:28;101914.63;;;12.16;32.13
10167;BME280;62970;53.130;8.244;2023-04-07T12:58:03;101909.34;;;12.19;31.79
10167;BME280;62970;53.130;8.244;2023-04-07T13:00:32;101912.78;;;12.23;31.98
10167;BME280;62970;53.130;8.244;2023-04-07T13:03:01;101913.63;;;12.26;31.52
10167;BME280;62970;53.130;8.244;2023-04-07T13:05:31;101903.09;;;12.31;31.93
10167;BME280;62970;53.130;8.244;2023-04-07T13:08:00;101917.91;;;12.32;31.60
10167;BME280;62970;53.130;8.244;2023-04-07T13:10:30;101920.50;;;12.33;31.70
10167;BME280;62970;53.130;8.244;2023-04-07T13:13:02;101903.06;;;12.34;31.19
10167;BME280;62970;53.130;8.244;2023-04-07T13:15:31;101908.25;;;12.35;31.63
10167;BME280;62970;53.130;8.244;2023-04-07T13:18:01;101913.47;;;12.38;31.56
10167;BME280;62970;53.130;8.244;2023-04-07T13:20:30;101904.69;;;12.41;31.21
10167;BME280;62970;53.130;8.244;2023-04-07T13:22:59;101915.16;;;12.41;31.22